sensor_id;sensor_type;location;lat;lon;timestamp;pressure;altitude;pressure_sealevel;temperature;humidity
56518;BME280;42419;48.760;2.322;2023-01-30T00:01:17;101881.94;;;22.23;40.48
56518;BME280;42419;48.760;2.322;2023-01-30T00:03:46;101903.94;;;22.35;40.13
56518;BME280;42419;48.760;2.322;2023-01-30T00:06:11;101867.13;;;22.10;40.25
56518;BME280;42419;48.760;2.322;2023-01-30T00:08:37;101934.03;;;22.45;40.07
56518;BME280;42419;48.760;2.322;2023-01-30T00:11:04;101892.59;;;22.26;39.86
56518;BME280;42419;48.760;2.322;2023-01-30T00:13:30;101933.88;;;22.50;40.04
56518;BME280;42419;48.760;2.322;2023-01-30T00:15:55;101922.25;;;22.49;39.82
56518;BME280;42419;48.760;2.322;2023-01-30T00:18:20;101909.94;;;22.44;40.03
56518;BME280;42419;48.760;2.322;2023-01-30T00:20:45;101921.34;;;22.50;39.89
56518;BME280;42419;48.760;2.322;2023-01-30T00:23:11;101901.03;;;22.41;39.81
56518;BME280;42419;48.760;2.322;2023-01-30T00:25:36;101914.28;;;22.48;39.74
56518;BME280;42419;48.760;2.322;2023-01-30T00:28:01;101915.94;;;22.52;39.52
56518;BME280;42419;48.760;2.322;2023-01-30T00:30:27;101897.41;;;22.44;39.64
56518;BME280;42419;48.760;2.322;2023-01-30T00:32:57;101852.63;;;22.17;39.60
56518;BME280;42419;48.760;2.322;2023-01-30T00:35:22;101904.28;;;22.53;39.54
56518;BME280;42419;48.760;2.322;2023-01-30T00:37:53;101874.34;;;22.37;39.42
56518;BME280;42419;48.760;2.322;2023-01-30T00:40:19;101873.38;;;22.39;39.33
56518;BME280;42419;48.760;2.322;2023-01-30T00:42:44;101866.19;;;22.40;39.50
56518;BME280;42419;48.760;2.322;2023-01-30T00:45:28;101881.00;;;22.53;39.18
56518;BME280;42419;48.760;2.322;2023-01-30T00:48:12;101884.56;;;22.54;39.38
56518;BME280;42419;48.760;2.322;2023-01-30T00:50:37;101857.38;;;22.36;39.50
56518;BME280;42419;48.760;2.322;2023-01-30T00:53:13;101870.47;;;22.47;39.33
56518;BME280;42419;48.760;2.322;2023-01-30T00:55:39;101845.69;;;22.39;39.17
56518;BME280;42419;48.760;2.322;2023-01-30T00:58:05;101866.66;;;22.54;39.05
56518;BME280;42419;48.760;2.322;2023-01-30T01:00:31;101862.22;;;22.53;39.01
56518;BME280;42419;48.760;2.322;2023-01-30T01:02:56;101864.00;;;22.54;39.18
56518;BME280;42419;48.760;2.322;2023-01-30T01:05:21;101854.25;;;22.50;38.91
56518;BME280;42419;48.760;2.322;2023-01-30T01:07:47;101847.97;;;22.51;39.29
56518;BME280;42419;48.760;2.322;2023-01-30T01:10:12;101844.31;;;22.54;38.79
56518;BME280;42419;48.760;2.322;2023-01-30T01:12:41;101844.31;;;22.54;38.81
56518;BME280;42419;48.760;2.322;2023-01-30T01:15:08;101850.56;;;22.54;38.70
56518;BME280;42419;48.760;2.322;2023-01-30T01:17:33;101850.56;;;22.54;38.49
56518;BME280;42419;48.760;2.322;2023-01-30T01:19:59;101839.81;;;22.54;38.51
56518;BME280;42419;48.760;2.322;2023-01-30T01:22:24;101794.84;;;22.34;38.71
56518;BME280;42419;48.760;2.322;2023-01-30T01:24:49;101822.97;;;22.49;38.39
56518;BME280;42419;48.760;2.322;2023-01-30T01:27:15;101835.34;;;22.55;38.42
56518;BME280;42419;48.760;2.322;2023-01-30T01:29:40;101831.78;;;22.54;38.09
56518;BME280;42419;48.760;2.322;2023-01-30T01:32:05;101816.66;;;22.50;38.14
56518;BME280;42419;48.760;2.322;2023-01-30T01:34:30;101808.75;;;22.46;38.36
56518;BME280;42419;48.760;2.322;2023-01-30T01:36:56;101785.69;;;22.40;38.23
56518;BME280;42419;48.760;2.322;2023-01-30T01:39:21;101799.03;;;22.43;38.24
56518;BME280;42419;48.760;2.322;2023-01-30T01:41:47;101784.88;;;22.38;38.11
56518;BME280;42419;48.760;2.322;2023-01-30T01:44:13;101812.16;;;22.52;38.19
56518;BME280;42419;48.760;2.322;2023-01-30T01:46:57;101819.28;;;22.53;38.15
56518;BME280;42419;48.760;2.322;2023-01-30T01:49:34;101810.50;;;22.48;38.20
56518;BME280;42419;48.760;2.322;2023-01-30T01:52:01;101820.19;;;22.52;38.00
56518;BME280;42419;48.760;2.322;2023-01-30T01:54:32;101812.16;;;22.52;37.93
56518;BME280;42419;48.760;2.322;2023-01-30T01:57:06;101802.34;;;22.51;37.89
56518;BME280;42419;48.760;2.322;2023-01-30T01:59:37;101775.34;;;22.28;37.86
56518;BME280;42419;48.760;2.322;2023-01-30T02:02:09;101790.28;;;22.36;37.63
56518;BME280;42419;48.760;2.322;2023-01-30T02:04:38;101797.31;;;22.40;37.60
56518;BME280;42419;48.760;2.322;2023-01-30T02:07:25;101822.91;;;22.51;37.50
56518;BME280;42419;48.760;2.322;2023-01-30T02:09:51;101797.41;;;22.37;37.46
56518;BME280;42419;48.760;2.322;2023-01-30T02:12:16;101809.66;;;22.46;37.39
56518;BME280;42419;48.760;2.322;2023-01-30T02:14:42;101813.09;;;22.50;37.39
56518;BME280;42419;48.760;2.322;2023-01-30T02:17:08;101766.69;;;22.20;37.11
56518;BME280;42419;48.760;2.322;2023-01-30T02:19:51;101816.75;;;22.49;37.53
56518;BME280;42419;48.760;2.322;2023-01-30T02:24:55;101797.44;;;22.36;37.22
56518;BME280;42419;48.760;2.322;2023-01-30T02:33:35;101764.63;;;22.28;37.01
56518;BME280;42419;48.760;2.322;2023-01-30T02:36:17;101794.44;;;22.47;37.02
56518;BME280;42419;48.760;2.322;2023-01-30T02:38:52;101797.13;;;22.47;36.46
56518;BME280;42419;48.760;2.322;2023-01-30T02:44:26;101785.88;;;22.35;36.69
56518;BME280;42419;48.760;2.322;2023-01-30T02:47:37;101792.66;;;22.46;36.60
56518;BME280;42419;48.760;2.322;2023-01-30T02:50:12;101806.97;;;22.46;36.50
56518;BME280;42419;48.760;2.322;2023-01-30T02:52:41;101796.38;;;22.41;36.38
56518;BME280;42419;48.760;2.322;2023-01-30T02:55:24;101798.09;;;22.44;36.45
56518;BME280;42419;48.760;2.322;2023-01-30T02:57:50;101799.78;;;22.47;36.29
56518;BME280;42419;48.760;2.322;2023-01-30T03:00:23;101763.00;;;22.22;36.35
56518;BME280;42419;48.760;2.322;2023-01-30T03:10:53;101806.94;;;22.48;35.99
56518;BME280;42419;48.760;2.322;2023-01-30T03:16:34;101805.13;;;22.48;35.89
56518;BME280;42419;48.760;2.322;2023-01-30T03:19:02;101802.44;;;22.48;35.76
56518;BME280;42419;48.760;2.322;2023-01-30T03:21:28;101797.97;;;22.49;35.63
56518;BME280;42419;48.760;2.322;2023-01-30T03:23:53;101783.88;;;22.40;35.70
56518;BME280;42419;48.760;2.322;2023-01-30T03:26:22;101772.59;;;22.31;35.76
56518;BME280;42419;48.760;2.322;2023-01-30T03:28:49;101805.13;;;22.48;35.49
56518;BME280;42419;48.760;2.322;2023-01-30T03:31:15;101798.09;;;22.44;35.40
56518;BME280;42419;48.760;2.322;2023-01-30T03:33:41;101799.91;;;22.44;35.29
56518;BME280;42419;48.760;2.322;2023-01-30T03:36:07;101801.50;;;22.49;35.31
56518;BME280;42419;48.760;2.322;2023-01-30T03:38:33;101803.25;;;22.50;35.15
56518;BME280;42419;48.760;2.322;2023-01-30T03:41:00;101806.81;;;22.51;35.32
56518;BME280;42419;48.760;2.322;2023-01-30T03:43:25;101779.50;;;22.38;35.24
56518;BME280;42419;48.760;2.322;2023-01-30T03:45:50;101773.44;;;22.31;34.92
56518;BME280;42419;48.760;2.322;2023-01-30T03:48:15;101805.94;;;22.50;34.96
56518;BME280;42419;48.760;2.322;2023-01-30T03:50:41;101746.16;;;22.19;34.95
56518;BME280;42419;48.760;2.322;2023-01-30T03:53:07;101794.31;;;22.50;34.88
56518;BME280;42419;48.760;2.322;2023-01-30T03:55:32;101728.34;;;22.16;35.01
56518;BME280;42419;48.760;2.322;2023-01-30T03:57:58;101788.91;;;22.51;35.17
56518;BME280;42419;48.760;2.322;2023-01-30T04:00:23;101779.31;;;22.44;34.75
56518;BME280;42419;48.760;2.322;2023-01-30T04:02:48;101786.22;;;22.51;34.98
56518;BME280;42419;48.760;2.322;2023-01-30T04:05:14;101785.31;;;22.52;34.95
56518;BME280;42419;48.760;2.322;2023-01-30T04:07:39;101784.47;;;22.50;34.96
56518;BME280;42419;48.760;2.322;2023-01-30T04:10:05;101760.69;;;22.39;34.87
56518;BME280;42419;48.760;2.322;2023-01-30T04:12:30;101762.19;;;22.48;34.62
56518;BME280;42419;48.760;2.322;2023-01-30T04:14:56;101752.56;;;22.41;34.65
56518;BME280;42419;48.760;2.322;2023-01-30T04:17:21;101734.00;;;22.35;34.64
56518;BME280;42419;48.760;2.322;2023-01-30T04:19:46;101705.09;;;22.17;34.47
56518;BME280;42419;48.760;2.322;2023-01-30T04:22:12;101774.53;;;22.54;34.61
56518;BME280;42419;48.760;2.322;2023-01-30T04:24:37;101755.22;;;22.42;34.60
56518;BME280;42419;48.760;2.322;2023-01-30T04:27:02;101764.69;;;22.54;34.41
56518;BME280;42419;48.760;2.322;2023-01-30T04:29:27;101770.03;;;22.54;34.49
56518;BME280;42419;48.760;2.322;2023-01-30T04:31:53;101749.72;;;22.46;34.42
56518;BME280;42419;48.760;2.322;2023-01-30T04:34:18;101692.72;;;22.13;34.34
56518;BME280;42419;48.760;2.322;2023-01-30T04:36:43;101760.22;;;22.53;34.37
56518;BME280;42419;48.760;2.322;2023-01-30T04:39:09;101775.41;;;22.54;34.33
56518;BME280;42419;48.760;2.322;2023-01-30T04:41:34;101755.94;;;22.48;34.44
56518;BME280;42419;48.760;2.322;2023-01-30T04:43:59;101713.75;;;22.25;33.84
56518;BME280;42419;48.760;2.322;2023-01-30T04:46:25;101736.38;;;22.44;34.21
56518;BME280;42419;48.760;2.322;2023-01-30T04:48:50;101734.31;;;22.52;34.06
56518;BME280;42419;48.760;2.322;2023-01-30T04:51:15;101727.28;;;22.48;33.91
56518;BME280;42419;48.760;2.322;2023-01-30T04:53:41;101720.34;;;22.41;34.06
56518;BME280;42419;48.760;2.322;2023-01-30T04:56:06;101747.59;;;22.57;33.91
56518;BME280;42419;48.760;2.322;2023-01-30T04:58:32;101732.69;;;22.47;33.85
56518;BME280;42419;48.760;2.322;2023-01-30T05:03:38;101755.66;;;22.57;33.93
56518;BME280;42419;48.760;2.322;2023-01-30T05:06:04;101742.50;;;22.48;33.98
56518;BME280;42419;48.760;2.322;2023-01-30T05:08:29;101751.19;;;22.57;33.78
56518;BME280;42419;48.760;2.322;2023-01-30T05:10:56;101751.25;;;22.54;33.85
56518;BME280;42419;48.760;2.322;2023-01-30T05:13:21;101752.25;;;22.50;33.90
56518;BME280;42419;48.760;2.322;2023-01-30T05:15:47;101746.00;;;22.50;33.69
56518;BME280;42419;48.760;2.322;2023-01-30T05:18:12;101731.81;;;22.46;33.87
56518;BME280;42419;48.760;2.322;2023-01-30T05:20:37;101749.50;;;22.53;33.93
56518;BME280;42419;48.760;2.322;2023-01-30T05:23:03;101752.91;;;22.58;33.72
56518;BME280;42419;48.760;2.322;2023-01-30T05:25:28;101726.59;;;22.41;33.78
56518;BME280;42419;48.760;2.322;2023-01-30T05:27:53;101759.16;;;22.59;33.86
56518;BME280;42419;48.760;2.322;2023-01-30T05:30:18;101737.97;;;22.50;33.55
56518;BME280;42419;48.760;2.322;2023-01-30T05:32:44;101741.44;;;22.53;33.74
56518;BME280;42419;48.760;2.322;2023-01-30T05:35:09;101748.41;;;22.59;33.39
56518;BME280;42419;48.760;2.322;2023-01-30T05:37:34;101747.53;;;22.58;33.41
56518;BME280;42419;48.760;2.322;2023-01-30T05:40:02;101744.84;;;22.58;33.73
56518;BME280;42419;48.760;2.322;2023-01-30T05:42:27;101749.28;;;22.59;33.57
56518;BME280;42419;48.760;2.322;2023-01-30T05:44:52;101730.88;;;22.49;33.42
56518;BME280;42419;48.760;2.322;2023-01-30T05:47:18;101747.50;;;22.60;33.59
56518;BME280;42419;48.760;2.322;2023-01-30T05:49:43;101709.63;;;22.41;33.63
56518;BME280;42419;48.760;2.322;2023-01-30T05:52:08;101704.19;;;22.44;33.61
56518;BME280;42419;48.760;2.322;2023-01-30T05:54:34;101733.16;;;22.61;33.47
56518;BME280;42419;48.760;2.322;2023-01-30T05:56:59;101726.91;;;22.60;33.44
56518;BME280;42419;48.760;2.322;2023-01-30T05:59:24;101712.06;;;22.49;33.50
56518;BME280;42419;48.760;2.322;2023-01-30T06:01:50;101736.75;;;22.60;33.37
56518;BME280;42419;48.760;2.322;2023-01-30T06:04:15;101734.22;;;22.55;33.39
56518;BME280;42419;48.760;2.322;2023-01-30T06:06:40;101719.41;;;22.44;33.51
56518;BME280;42419;48.760;2.322;2023-01-30T06:09:06;101744.84;;;22.58;33.36
56518;BME280;42419;48.760;2.322;2023-01-30T06:11:31;101755.59;;;22.58;33.40
56518;BME280;42419;48.760;2.322;2023-01-30T06:13:56;101734.47;;;22.48;33.27
56518;BME280;42419;48.760;2.322;2023-01-30T06:16:22;101737.03;;;22.51;33.18
56518;BME280;42419;48.760;2.322;2023-01-30T06:18:47;101735.94;;;22.58;33.18
56518;BME280;42419;48.760;2.322;2023-01-30T06:21:13;101735.06;;;22.57;33.23
56518;BME280;42419;48.760;2.322;2023-01-30T06:23:39;101719.16;;;22.50;33.14
56518;BME280;42419;48.760;2.322;2023-01-30T06:26:05;101724.41;;;22.54;33.22
56518;BME280;42419;48.760;2.322;2023-01-30T06:28:30;101712.75;;;22.55;32.97
56518;BME280;42419;48.760;2.322;2023-01-30T06:30:55;101645.78;;;22.26;33.06
56518;BME280;42419;48.760;2.322;2023-01-30T06:33:21;101706.34;;;22.59;33.13
56518;BME280;42419;48.760;2.322;2023-01-30T06:35:50;101714.41;;;22.59;32.91
56518;BME280;42419;48.760;2.322;2023-01-30T06:38:16;101716.16;;;22.60;33.11
56518;BME280;42419;48.760;2.322;2023-01-30T06:40:47;101717.97;;;22.60;33.20
56518;BME280;42419;48.760;2.322;2023-01-30T06:43:13;101711.63;;;22.62;32.82
56518;BME280;42419;48.760;2.322;2023-01-30T06:45:39;101702.97;;;22.53;33.17
56518;BME280;42419;48.760;2.322;2023-01-30T06:48:04;101725.13;;;22.59;33.00
56518;BME280;42419;48.760;2.322;2023-01-30T06:50:30;101728.66;;;22.61;33.08
56518;BME280;42419;48.760;2.322;2023-01-30T06:53:00;101727.81;;;22.59;32.98
56518;BME280;42419;48.760;2.322;2023-01-30T06:55:25;101678.78;;;22.28;33.17
56518;BME280;42419;48.760;2.322;2023-01-30T06:58:02;101737.44;;;22.66;33.05
56518;BME280;42419;48.760;2.322;2023-01-30T07:00:32;101746.31;;;22.68;33.01
56518;BME280;42419;48.760;2.322;2023-01-30T07:03:00;101718.84;;;22.60;33.12
56518;BME280;42419;48.760;2.322;2023-01-30T07:05:26;101745.38;;;22.69;33.14
56518;BME280;42419;48.760;2.322;2023-01-30T07:07:53;101757.03;;;22.68;32.92
56518;BME280;42419;48.760;2.322;2023-01-30T07:10:18;101765.97;;;22.69;33.08
56518;BME280;42419;48.760;2.322;2023-01-30T07:12:44;101762.44;;;22.67;32.99
56518;BME280;42419;48.760;2.322;2023-01-30T07:15:10;101779.41;;;22.69;32.83
56518;BME280;42419;48.760;2.322;2023-01-30T07:17:36;101772.56;;;22.59;32.97
56518;BME280;42419;48.760;2.322;2023-01-30T07:20:01;101791.06;;;22.68;32.71
56518;BME280;42419;48.760;2.322;2023-01-30T07:22:26;101795.50;;;22.69;32.72
56518;BME280;42419;48.760;2.322;2023-01-30T07:24:52;101761.38;;;22.45;32.79
56518;BME280;42419;48.760;2.322;2023-01-30T07:27:17;101796.56;;;22.63;33.11
56518;BME280;42419;48.760;2.322;2023-01-30T07:29:42;101794.66;;;22.67;32.87
56518;BME280;42419;48.760;2.322;2023-01-30T07:32:18;101792.97;;;22.64;32.91
56518;BME280;42419;48.760;2.322;2023-01-30T07:34:47;101786.81;;;22.62;32.58
56518;BME280;42419;48.760;2.322;2023-01-30T07:37:12;101801.78;;;22.68;32.74
56518;BME280;42419;48.760;2.322;2023-01-30T07:39:38;101808.09;;;22.67;32.89
56518;BME280;42419;48.760;2.322;2023-01-30T07:42:03;101816.22;;;22.65;32.60
56518;BME280;42419;48.760;2.322;2023-01-30T07:44:29;101809.19;;;22.61;32.99
56518;BME280;42419;48.760;2.322;2023-01-30T07:46:54;101823.22;;;22.69;32.76
56518;BME280;42419;48.760;2.322;2023-01-30T07:49:20;101811.63;;;22.69;32.74
56518;BME280;42419;48.760;2.322;2023-01-30T07:51:45;101808.00;;;22.70;33.04
56518;BME280;42419;48.760;2.322;2023-01-30T07:54:10;101806.44;;;22.63;32.71
56518;BME280;42419;48.760;2.322;2023-01-30T07:56:36;101799.38;;;22.60;32.65
56518;BME280;42419;48.760;2.322;2023-01-30T07:59:01;101814.28;;;22.69;32.95
56518;BME280;42419;48.760;2.322;2023-01-30T08:01:27;101813.31;;;22.71;32.60
56518;BME280;42419;48.760;2.322;2023-01-30T08:03:52;101815.94;;;22.73;32.62
56518;BME280;42419;48.760;2.322;2023-01-30T08:06:17;101818.59;;;22.74;32.62
56518;BME280;42419;48.760;2.322;2023-01-30T08:08:43;101822.97;;;22.77;32.74
56518;BME280;42419;48.760;2.322;2023-01-30T08:11:09;101815.78;;;22.77;32.69
56518;BME280;42419;48.760;2.322;2023-01-30T08:13:34;101806.84;;;22.77;32.83
56518;BME280;42419;48.760;2.322;2023-01-30T08:16:04;101814.72;;;22.83;32.89
56518;BME280;42419;48.760;2.322;2023-01-30T08:18:31;101816.47;;;22.84;32.70
56518;BME280;42419;48.760;2.322;2023-01-30T08:21:02;101790.91;;;22.72;32.82
56518;BME280;42419;48.760;2.322;2023-01-30T08:23:28;101820.81;;;22.88;32.87
56518;BME280;42419;48.760;2.322;2023-01-30T08:25:59;101815.44;;;22.88;32.89
56518;BME280;42419;48.760;2.322;2023-01-30T08:28:25;101810.06;;;22.88;32.81
56518;BME280;42419;48.760;2.322;2023-01-30T08:30:51;101820.75;;;22.90;32.68
56518;BME280;42419;48.760;2.322;2023-01-30T08:33:18;101819.09;;;22.85;33.06
56518;BME280;42419;48.760;2.322;2023-01-30T08:35:43;101819.16;;;22.84;32.92
56518;BME280;42419;48.760;2.322;2023-01-30T08:38:08;101830.56;;;22.91;32.96
56518;BME280;42419;48.760;2.322;2023-01-30T08:40:34;101832.31;;;22.92;32.95
56518;BME280;42419;48.760;2.322;2023-01-30T08:43:00;101820.06;;;22.84;32.99
56518;BME280;42419;48.760;2.322;2023-01-30T08:45:26;101830.56;;;22.91;32.75
56518;BME280;42419;48.760;2.322;2023-01-30T08:47:51;101787.00;;;22.56;33.17
56518;BME280;42419;48.760;2.322;2023-01-30T08:50:16;101836.09;;;22.86;32.79
56518;BME280;42419;48.760;2.322;2023-01-30T08:52:42;101840.50;;;22.89;32.76
56518;BME280;42419;48.760;2.322;2023-01-30T08:55:07;101836.03;;;22.88;32.96
56518;BME280;42419;48.760;2.322;2023-01-30T08:57:33;101838.78;;;22.86;32.96
56518;BME280;42419;48.760;2.322;2023-01-30T08:59:59;101829.84;;;22.85;33.24
56518;BME280;42419;48.760;2.322;2023-01-30T09:02:24;101831.72;;;22.83;32.76
56518;BME280;42419;48.760;2.322;2023-01-30T09:04:49;101815.19;;;22.69;32.99
56518;BME280;42419;48.760;2.322;2023-01-30T09:07:15;101840.84;;;22.78;32.69
56518;BME280;42419;48.760;2.322;2023-01-30T09:09:40;101849.88;;;22.75;32.60
56518;BME280;42419;48.760;2.322;2023-01-30T09:12:05;101856.25;;;22.71;32.66
56518;BME280;42419;48.760;2.322;2023-01-30T09:14:31;101851.16;;;22.64;32.70
56518;BME280;42419;48.760;2.322;2023-01-30T09:16:56;101855.56;;;22.66;32.68
56518;BME280;42419;48.760;2.322;2023-01-30T09:19:22;101820.19;;;22.52;32.48
56518;BME280;42419;48.760;2.322;2023-01-30T09:21:49;101828.25;;;22.52;32.61
56518;BME280;42419;48.760;2.322;2023-01-30T09:24:14;101760.81;;;22.09;32.82
56518;BME280;42419;48.760;2.322;2023-01-30T09:26:39;101838.06;;;22.53;32.53
56518;BME280;42419;48.760;2.322;2023-01-30T09:29:09;101846.16;;;22.52;32.79
56518;BME280;42419;48.760;2.322;2023-01-30T09:31:34;101838.25;;;22.47;32.57
56518;BME280;42419;48.760;2.322;2023-01-30T09:34:00;101851.66;;;22.47;32.60
56518;BME280;42419;48.760;2.322;2023-01-30T09:36:25;101840.97;;;22.46;32.57
56518;BME280;42419;48.760;2.322;2023-01-30T09:38:50;101850.06;;;22.41;32.59
56518;BME280;42419;48.760;2.322;2023-01-30T09:41:41;101869.75;;;22.40;32.64
56518;BME280;42419;48.760;2.322;2023-01-30T09:55:46;101848.56;;;22.31;32.81
56518;BME280;42419;48.760;2.322;2023-01-30T09:58:17;101844.19;;;22.29;32.62
56518;BME280;42419;48.760;2.322;2023-01-30T10:00:43;101783.63;;;21.92;32.47
56518;BME280;42419;48.760;2.322;2023-01-30T10:03:13;101854.03;;;22.28;32.58
56518;BME280;42419;48.760;2.322;2023-01-30T10:05:49;101831.97;;;22.19;32.47
56518;BME280;42419;48.760;2.322;2023-01-30T10:11:31;101856.84;;;22.25;32.63
56518;BME280;42419;48.760;2.322;2023-01-30T10:17:28;101858.66;;;22.23;32.70
56518;BME280;42419;48.760;2.322;2023-01-30T10:22:54;101849.75;;;22.23;32.44
56518;BME280;42419;48.760;2.322;2023-01-30T10:28:02;101864.25;;;22.17;32.64
56518;BME280;42419;48.760;2.322;2023-01-30T10:30:30;101875.66;;;22.24;32.63
56518;BME280;42419;48.760;2.322;2023-01-30T10:33:01;101873.88;;;22.23;32.49
56518;BME280;42419;48.760;2.322;2023-01-30T10:35:36;101864.28;;;22.16;32.52
56518;BME280;42419;48.760;2.322;2023-01-30T10:38:27;101876.53;;;22.24;32.50
56518;BME280;42419;48.760;2.322;2023-01-30T10:41:18;101875.66;;;22.24;32.71
56518;BME280;42419;48.760;2.322;2023-01-30T10:43:55;101869.38;;;22.25;32.42
56518;BME280;42419;48.760;2.322;2023-01-30T10:46:54;101842.84;;;22.14;32.33
56518;BME280;42419;48.760;2.322;2023-01-30T10:49:44;101863.22;;;22.21;32.42
56518;BME280;42419;48.760;2.322;2023-01-30T10:58:07;101846.03;;;22.27;32.41
56518;BME280;42419;48.760;2.322;2023-01-30T11:06:07;101842.44;;;22.28;32.36
56518;BME280;42419;48.760;2.322;2023-01-30T11:08:35;101846.00;;;22.28;32.23
56518;BME280;42419;48.760;2.322;2023-01-30T11:11:46;101846.88;;;22.29;32.29
56518;BME280;42419;48.760;2.322;2023-01-30T11:14:10;101843.28;;;22.30;32.13
56518;BME280;42419;48.760;2.322;2023-01-30T11:17:00;101838.72;;;22.32;32.26
56518;BME280;42419;48.760;2.322;2023-01-30T11:19:33;101813.28;;;22.17;32.14
56518;BME280;42419;48.760;2.322;2023-01-30T11:22:04;101833.66;;;22.23;32.33
56518;BME280;42419;48.760;2.322;2023-01-30T11:24:44;101830.16;;;22.21;32.16
56518;BME280;42419;48.760;2.322;2023-01-30T11:27:28;101830.88;;;22.26;32.21
56518;BME280;42419;48.760;2.322;2023-01-30T11:30:09;101835.13;;;22.33;32.16
56518;BME280;42419;48.760;2.322;2023-01-30T11:32:36;101836.88;;;22.34;32.09
56518;BME280;42419;48.760;2.322;2023-01-30T11:37:38;101835.09;;;22.34;32.26
56518;BME280;42419;48.760;2.322;2023-01-30T11:42:49;101824.34;;;22.34;32.18
56518;BME280;42419;48.760;2.322;2023-01-30T11:45:17;101822.56;;;22.35;32.20
56518;BME280;42419;48.760;2.322;2023-01-30T11:47:52;101823.44;;;22.35;32.23
56518;BME280;42419;48.760;2.322;2023-01-30T11:50:20;101809.50;;;22.23;32.23
56518;BME280;42419;48.760;2.322;2023-01-30T11:52:47;101819.06;;;22.31;32.14
56518;BME280;42419;48.760;2.322;2023-01-30T11:55:17;101811.88;;;22.32;32.14
56518;BME280;42419;48.760;2.322;2023-01-30T11:57:46;101810.06;;;22.34;32.27
56518;BME280;42419;48.760;2.322;2023-01-30T12:00:22;101807.34;;;22.35;32.16
56518;BME280;42419;48.760;2.322;2023-01-30T12:02:50;101789.81;;;22.24;32.20
56518;BME280;42419;48.760;2.322;2023-01-30T12:05:38;101811.81;;;22.35;32.12
56518;BME280;42419;48.760;2.322;2023-01-30T12:10:48;101793.25;;;22.27;32.20
56518;BME280;42419;48.760;2.322;2023-01-30T12:13:35;101804.69;;;22.34;32.24
56518;BME280;42419;48.760;2.322;2023-01-30T12:19:22;101798.47;;;22.32;31.95
56518;BME280;42419;48.760;2.322;2023-01-30T12:22:00;101800.34;;;22.30;32.02
56518;BME280;42419;48.760;2.322;2023-01-30T12:24:35;101793.19;;;22.30;32.16
56518;BME280;42419;48.760;2.322;2023-01-30T12:27:15;101787.00;;;22.27;31.90
56518;BME280;42419;48.760;2.322;2023-01-30T12:32:29;101766.69;;;22.20;32.22
56518;BME280;42419;48.760;2.322;2023-01-30T12:34:54;101780.66;;;22.31;32.00
56518;BME280;42419;48.760;2.322;2023-01-30T12:40:20;101777.00;;;22.32;32.08
56518;BME280;42419;48.760;2.322;2023-01-30T12:43:05;101768.19;;;22.28;32.02
56518;BME280;42419;48.760;2.322;2023-01-30T12:48:41;101770.75;;;22.31;32.10
56518;BME280;42419;48.760;2.322;2023-01-30T12:54:17;101759.22;;;22.29;32.02
56518;BME280;42419;48.760;2.322;2023-01-30T12:57:06;101751.16;;;22.29;31.90
56518;BME280;42419;48.760;2.322;2023-01-30T13:07:35;101746.69;;;22.30;32.19
56518;BME280;42419;48.760;2.322;2023-01-30T13:10:16;101741.31;;;22.30;31.83
56518;BME280;42419;48.760;2.322;2023-01-30T13:18:24;101721.66;;;22.29;31.84
56518;BME280;42419;48.760;2.322;2023-01-30T13:20:55;101720.81;;;22.27;32.02
56518;BME280;42419;48.760;2.322;2023-01-30T13:24:05;101727.84;;;22.31;31.82
56518;BME280;42419;48.760;2.322;2023-01-30T13:26:36;101724.31;;;22.31;31.96
56518;BME280;42419;48.760;2.322;2023-01-30T13:29:09;101704.16;;;22.18;32.10
56518;BME280;42419;48.760;2.322;2023-01-30T13:31:40;101707.47;;;22.26;31.90
56518;BME280;42419;48.760;2.322;2023-01-30T13:34:14;101712.69;;;22.30;31.84
56518;BME280;42419;48.760;2.322;2023-01-30T13:36:48;101714.41;;;22.31;31.96
56518;BME280;42419;48.760;2.322;2023-01-30T13:41:58;101699.34;;;22.27;31.75
56518;BME280;42419;48.760;2.322;2023-01-30T13:44:27;101685.16;;;22.24;31.63
56518;BME280;42419;48.760;2.322;2023-01-30T13:46:56;101704.41;;;22.36;31.95
56518;BME280;42419;48.760;2.322;2023-01-30T13:52:13;101691.38;;;22.26;31.90
56518;BME280;42419;48.760;2.322;2023-01-30T13:54:55;101715.00;;;22.41;31.97
56518;BME280;42419;48.760;2.322;2023-01-30T13:57:42;101707.38;;;22.29;31.85
56518;BME280;42419;48.760;2.322;2023-01-30T14:00:30;101709.78;;;22.36;31.85
56518;BME280;42419;48.760;2.322;2023-01-30T14:10:54;101724.91;;;22.39;31.84
56518;BME280;42419;48.760;2.322;2023-01-30T14:13:21;101722.28;;;22.37;31.95
56518;BME280;42419;48.760;2.322;2023-01-30T14:16:05;101708.22;;;22.31;32.01
56518;BME280;42419;48.760;2.322;2023-01-30T14:18:35;101725.00;;;22.36;31.91
56518;BME280;42419;48.760;2.322;2023-01-30T14:21:19;101740.19;;;22.37;31.95
56518;BME280;42419;48.760;2.322;2023-01-30T14:23:57;101743.78;;;22.36;31.83
56518;BME280;42419;48.760;2.322;2023-01-30T14:29:11;101735.72;;;22.36;31.98
56518;BME280;42419;48.760;2.322;2023-01-30T14:31:56;101734.94;;;22.34;31.90
56518;BME280;42419;48.760;2.322;2023-01-30T14:34:40;101746.56;;;22.33;31.86
56518;BME280;42419;48.760;2.322;2023-01-30T14:39:58;101759.19;;;22.31;32.09
56518;BME280;42419;48.760;2.322;2023-01-30T14:42:29;101757.31;;;22.33;32.01
56518;BME280;42419;48.760;2.322;2023-01-30T14:47:21;101759.09;;;22.32;31.81
56518;BME280;42419;48.760;2.322;2023-01-30T14:49:47;101763.59;;;22.32;31.97
56518;BME280;42419;48.760;2.322;2023-01-30T14:52:45;101732.72;;;22.19;31.97
56518;BME280;42419;48.760;2.322;2023-01-30T14:55:36;101751.13;;;22.31;31.94
56518;BME280;42419;48.760;2.322;2023-01-30T14:58:02;101763.75;;;22.27;31.96
56518;BME280;42419;48.760;2.322;2023-01-30T15:00:38;101768.09;;;22.31;31.95